Flight Track Log - Related Links

Times and Time Zones

All times are in EDT time to prevent confusion due to time zone crossing. See the AAY876 flight status page for this flight to view local times or setup timezone preferences in your user account.

Time Position Orientation Groundspeed Altitude Reporting Facility
EDT Latitude Longitude Course Direction KTS MPH feet Rate Location/Type
Fri 04:20:59 PM 27.9000 -82.6833 221° Southwest 162 186 800  Level Tampa TRACON
Fri 04:21:17 PM 27.8833 -82.7000 202° Southwest 153 176 1,600 1,615 Climbing Tampa TRACON
Fri 04:22:17 PM 27.9000 -82.7333 300° West 204 235 2,900 2,012 Climbing Tampa TRACON
Fri 04:24:10 PM 28.0214 -82.7372 358° North 249 287 7,400 2,331 Climbing Miami Center
Fri 04:25:12 PM 28.0978 -82.7342 North 268 308 9,700 1,887 Climbing Miami Center
Fri 04:26:14 PM 28.1842 -82.7319 North 307 353 11,300 2,419 Climbing Miami Center
Fri 04:27:16 PM 28.2911 -82.7356 358° North 319 367 14,700 2,661 Climbing Miami Center
Fri 04:28:18 PM 28.3817 -82.7561 349° North 327 376 16,800 1,839 Climbing Miami Center
Fri 04:29:20 PM 28.4725 -82.7797 347° North 330 380 18,500 1,790 Climbing Miami Center
Fri 04:30:22 PM 28.5667 -82.8006 349° North 339 390 20,500 1,805 Climbing Miami Center
Fri 04:31:23 PM 28.6661 -82.8253 348° North 346 398 22,200 1,512 Climbing Miami Center
Fri 04:32:25 PM 28.7647 -82.8481 349° North 359 413 23,600 1,500 Climbing Miami Center
Fri 04:33:27 PM 28.8653 -82.8728 348° North 364 419 25,300 1,385 Climbing Miami Center
Fri 04:34:35 PM 28.9867 -82.9019 348° North 363 418 26,600 844 Climbing Jacksonville Center
Fri 04:35:35 PM 29.0953 -82.9283 348° North 381 438 27,100 500 Climbing Jacksonville Center
Fri 04:36:35 PM 29.2144 -82.9567 348° North 409 471 27,600 645 Climbing Jacksonville Center
Fri 04:37:36 PM 29.3458 -82.9903 347° North 430 495 28,400 900 Climbing Jacksonville Center
Fri 04:38:35 PM 29.4731 -83.0189 349° North 447 514 29,400 1,160 Climbing Jacksonville Center
Fri 04:39:35 PM 29.6006 -83.0525 347° North 453 521 30,700 1,190 Climbing Jacksonville Center
Fri 04:40:36 PM 29.7194 -83.1056 339° North 458 527 31,800 201 Climbing Jacksonville Center
Fri 04:46:04 PM 30.3654 -83.4058 338° Northwest 451 519 32,000 27 Climbing FlightAware ADS-B (KONZ)
Fri 04:47:54 PM 30.5692 -83.5284 325° Northwest 444 511 32,000  Level FlightAware ADS-B (KONZ)
Fri 04:48:26 PM 30.6224 -83.5716 325° Northwest 442 509 32,000  Level FlightAware ADS-B (KONZ)
Fri 04:49:03 PM 30.6801 -83.6122 338° Northwest 453 521 32,000  Level FlightAware ADS-B (KONZ)
Fri 04:49:36 PM 30.7432 -83.6317 348° North 455 524 32,000  Level FlightAware ADS-B (KONZ)
Fri 04:50:17 PM 30.8397 -83.6582 346° North 458 527 32,000  Level FlightAware ADS-B (KONZ)
Fri 04:50:55 PM 30.9181 -83.6803 347° North 460 529 32,000  Level FlightAware ADS-B (KONZ)
Fri 04:51:54 PM 31.0406 -83.7135 347° North 457 526 32,000  Level FlightAware ADS-B (KONZ)
Fri 04:52:36 PM 31.1178 -83.7372 347° North 457 526 32,000 297 Level Jacksonville Center
Fri 04:53:35 PM 31.2428 -83.7697 347° North 452 520 32,500 706 Climbing Jacksonville Center
Fri 04:54:35 PM 31.3658 -83.8025 347° North 452 520 33,400 971 Climbing Jacksonville Center
Fri 04:56:59 PM 31.6631 -83.8875 346° North 452 520 35,800 765 Climbing Atlanta Center
Fri 04:57:59 PM 31.7778 -83.9217 346° North 452 520 36,000 100 Climbing Atlanta Center
Fri 04:58:59 PM 31.8969 -83.9508 348° North 452 520 36,000  Level Atlanta Center
Fri 04:59:59 PM 32.0200 -83.9825 348° North 447 514 36,000  Level Atlanta Center
Fri 05:00:59 PM 32.1369 -84.0167 346° North 447 514 36,000  Level Atlanta Center
Fri 05:01:59 PM 32.2558 -84.0486 347° North 441 507 36,000  Level Atlanta Center
Fri 05:02:59 PM 32.3769 -84.0831 346° North 441 507 36,000  Level Atlanta Center
Fri 05:03:59 PM 32.4958 -84.1178 346° North 436 502 36,000  Level Atlanta Center
Fri 05:04:59 PM 32.6169 -84.1497 347° North 436 502 36,000  Level Atlanta Center
Fri 05:05:59 PM 32.7400 -84.1844 347° North 436 502 36,000  Level Atlanta Center
Fri 05:06:59 PM 32.8736 -84.2219 347° North 441 507 36,000  Level Atlanta Center
Fri 05:07:59 PM 32.9967 -84.2567 347° North 441 507 36,000  Level Atlanta Center
Fri 05:08:59 PM 33.1156 -84.2917 346° North 441 507 36,000 150 Level Atlanta Center
Fri 05:09:59 PM 33.2386 -84.3244 347° North 441 507 36,300 326 Climbing Atlanta Center
Fri 05:15:07 PM 33.8970 -84.5057 340° North 427 491 38,000 293 Climbing FlightAware ADS-B (KDZJ)
Fri 05:15:47 PM 33.9737 -84.5394 339° North 431 496 38,000  Level FlightAware ADS-B (KDZJ)
Fri 05:16:26 PM 34.0484 -84.5739 338° Northwest 433 498 38,000  Level FlightAware ADS-B (KDZJ)
Fri 05:17:07 PM 34.1255 -84.6118 337° Northwest 436 502 38,000 74 Level FlightAware ADS-B (KDZJ)
Fri 05:17:47 PM 34.2006 -84.6497 337° Northwest 436 502 38,100 75 Climbing FlightAware ADS-B (KDZJ)
Fri 05:18:27 PM 34.2771 -84.6892 336° Northwest 437 503 38,100 -75 Level FlightAware ADS-B (KDZJ)
Fri 05:19:07 PM 34.3548 -84.7228 347° North 446 513 38,000 -75 Descending FlightAware ADS-B (KDZJ)
Fri 05:19:47 PM 34.4369 -84.7420 349° North 445 512 38,000  Level FlightAware ADS-B (KDZJ)
Fri 05:20:27 PM 34.5206 -84.7611 349° North 455 524 38,000  Level FlightAware ADS-B (KDZJ)
Fri 05:21:06 PM 34.6007 -84.7789 350° North 454 522 38,000  Level FlightAware ADS-B (KDZJ)
Fri 05:21:47 PM 34.6863 -84.7974 350° North 454 522 38,000  Level FlightAware ADS-B (KDZJ)
Fri 05:22:17 PM 34.6968 -84.7997 350° North 454 522 38,000  Level FlightAware ADS-B (KMDQ)
Fri 05:23:09 PM 34.8208 -84.8268 350° North 453 521 38,000  Level FlightAware ADS-B (KMDQ)
Fri 05:23:50 PM 34.9063 -84.8457 350° North 452 520 38,000  Level FlightAware ADS-B (KMDQ)
Fri 05:25:14 PM 35.0657 -84.8808 350° North 449 517 38,000  Level FlightAware ADS-B (KMDQ)
Fri 05:25:50 PM 35.1432 -84.8978 350° North 448 516 38,000  Level FlightAware ADS-B (KMDQ)
Fri 05:26:34 PM 35.2404 -84.9192 350° North 448 516 38,000  Level FlightAware ADS-B (KMDQ)
Fri 05:27:14 PM 35.3203 -84.9369 350° North 446 513 38,000  Level FlightAware ADS-B (KMDQ)
Fri 05:27:55 PM 35.4049 -84.9558 350° North 446 513 38,000  Level FlightAware ADS-B (KMDQ)
Fri 05:28:34 PM 35.4817 -84.9729 350° North 444 511 38,000  Level FlightAware ADS-B (KMDQ)
Fri 05:29:13 PM 35.5645 -84.9913 350° North 444 511 38,000  Level FlightAware ADS-B (KMDQ)
Fri 05:29:54 PM 35.6467 -85.0097 350° North 444 511 38,000  Level FlightAware ADS-B (KMDQ)
Fri 05:30:27 PM 35.7142 -85.0248 350° North 442 509 38,000  Level FlightAware ADS-B (KMDQ)
Fri 05:31:32 PM 35.8383 -85.0527 350° North 441 507 38,000  Level FlightAware ADS-B (KMDQ)
Fri 05:32:14 PM 35.9227 -85.0716 350° North 441 507 38,000  Level FlightAware ADS-B (KMDQ)
Fri 05:32:55 PM 36.0118 -85.0918 350° North 441 507 38,000  Level FlightAware ADS-B (KMDQ)
Fri 05:33:34 PM 36.0902 -85.1095 350° North 441 507 38,000  Level FlightAware ADS-B (KMDQ)
Fri 05:34:13 PM 36.1677 -85.1271 349° North 440 506 38,000  Level FlightAware ADS-B (KMDQ)
Fri 05:34:55 PM 36.2490 -85.1585 341° North 439 505 38,000  Level FlightAware ADS-B (KMDQ)
Fri 05:35:34 PM 36.3253 -85.1905 341° North 436 502 38,000  Level FlightAware ADS-B (KMDQ)
Fri 05:36:14 PM 36.4016 -85.2223 341° North 435 501 38,000  Level FlightAware ADS-B (KMDQ)
Fri 05:36:54 PM 36.4781 -85.2544 341° North 432 497 38,000  Level FlightAware ADS-B (KMDQ)
Fri 05:37:26 PM 36.5369 -85.2791 341° North 429 494 38,000  Level FlightAware ADS-B (KMDQ)
Fri 05:39:24 PM 36.7575 -85.3722 341° North 422 486 38,000  Level FlightAware ADS-B
Fri 05:40:18 PM 36.8369 -85.4057 341° North 421 484 38,000  Level FlightAware ADS-B
Fri 05:41:24 PM 36.9710 -85.4626 341° North 421 484 38,000  Level FlightAware ADS-B
Fri 05:42:36 PM 37.1125 -85.5229 341° North 420 483 38,000  Level FlightAware ADS-B
Fri 05:43:37 PM 37.2243 -85.5708 341° North 421 484 38,000  Level FlightAware ADS-B
Fri 05:44:14 PM 37.2924 -85.5999 341° North 421 484 38,000  Level FlightAware ADS-B
Fri 05:45:36 PM 37.4431 -85.6648 341° North 418 481 38,000  Level FlightAware ADS-B
Fri 05:46:36 PM 37.5530 -85.7122 341° North 415 478 38,000  Level FlightAware ADS-B
Fri 05:47:36 PM 37.6621 -85.7594 341° North 414 476 38,000  Level FlightAware ADS-B
Fri 05:48:37 PM 37.7716 -85.8070 341° North 413 475 38,000  Level FlightAware ADS-B
Fri 05:49:47 PM 37.8987 -85.8624 341° North 414 476 38,000  Level FlightAware ADS-B
Fri 05:51:06 PM 38.0414 -85.9247 341° North 414 476 38,000  Level FlightAware ADS-B
Fri 05:52:14 PM 38.1640 -85.9782 341° North 414 476 38,000  Level FlightAware ADS-B
Fri 05:53:31 PM 38.3047 -86.0404 341° North 412 474 38,000  Level FlightAware ADS-B
Fri 05:54:46 PM 38.4352 -86.0981 341° North 409 471 38,000  Level FlightAware ADS-B
Fri 05:56:16 PM 38.5243 -86.1378 341° North 412 474 38,000 26 Level FlightAware ADS-B
Fri 05:58:34 PM 38.8435 -86.2803 341° North 410 472 38,100  Climbing FlightAware ADS-B (KCVG)
Fri 06:03:26 PM 39.3435 -86.5063 340° North 400 460 38,000 -17 Descending FlightAware ADS-B
Fri 06:04:36 PM 39.4850 -86.5709 341° North 397 457 38,000  Level FlightAware ADS-B
Fri 06:05:13 PM 39.5258 -86.5896 341° North 395 455 38,000  Level FlightAware ADS-B
Fri 06:06:48 PM 39.6930 -86.6664 341° North 398 458 38,000  Level FlightAware ADS-B
Fri 06:07:18 PM 39.7532 -86.6942 340° North 398 458 38,000  Level FlightAware ADS-B
Fri 06:09:09 PM 39.9536 -86.7870 340° North 398 458 38,000  Level FlightAware ADS-B
Fri 06:10:59 PM 40.1391 -86.8734 340° North 399 459 38,000  Level FlightAware ADS-B
Fri 06:11:19 PM 40.1770 -86.8961 327° Northwest 394 453 38,000  Level FlightAware ADS-B
Fri 06:11:38 PM 40.1888 -86.9079 310° West 388 447 38,000 87 Level FlightAware ADS-B
Fri 06:12:28 PM 40.2628 -87.0201 311° West 386 444 38,100  Climbing FlightAware ADS-B
Fri 06:13:00 PM 40.3004 -87.0774 311° West 384 442 38,000 -66 Descending FlightAware ADS-B
Fri 06:13:59 PM 40.3674 -87.1800 310° West 384 442 38,000  Level FlightAware ADS-B
Fri 06:14:29 PM 40.4030 -87.2354 310° West 384 442 38,000  Level FlightAware ADS-B
Fri 06:15:10 PM 40.4503 -87.3084 311° West 384 442 38,000 -423 Level FlightAware ADS-B
Fri 06:15:40 PM 40.4848 -87.3614 311° West 382 440 37,500 -885 Descending FlightAware ADS-B
Fri 06:16:11 PM 40.5197 -87.4152 310° West 382 440 37,100 -857 Descending FlightAware ADS-B
Fri 06:16:50 PM 40.5645 -87.4847 310° West 388 447 36,500 -963 Descending FlightAware ADS-B
Fri 06:17:32 PM 40.6125 -87.5594 310° West 381 438 35,800 -989 Descending FlightAware ADS-B
Fri 06:18:21 PM 40.6685 -87.6461 310° West 378 435 35,000 -944 Descending FlightAware ADS-B
Fri 06:19:01 PM 40.7137 -87.7164 310° West 378 435 34,400 -1,200 Descending FlightAware ADS-B
Fri 06:19:41 PM 40.7553 -87.7819 310° West 375 432 33,400 -1,600 Descending FlightAware ADS-B
Fri 06:20:31 PM 40.8137 -87.8738 310° West 373 429 32,000 -1,425 Descending FlightAware ADS-B
Fri 06:21:01 PM 40.8471 -87.9263 310° West 372 428 31,500 -984 Descending FlightAware ADS-B
Fri 06:21:32 PM 40.8810 -87.9796 310° West 374 430 31,000 -943 Descending FlightAware ADS-B
Fri 06:22:11 PM 40.9207 -88.0425 310° West 375 432 30,400 -943 Descending FlightAware ADS-B
Fri 06:22:42 PM 40.9579 -88.1013 310° West 373 429 29,900 -957 Descending FlightAware ADS-B
Fri 06:23:20 PM 40.9991 -88.1663 310° West 372 428 29,300 -1,043 Descending FlightAware ADS-B
Fri 06:23:51 PM 41.0353 -88.2240 310° West 371 427 28,700 -1,355 Descending FlightAware ADS-B
Fri 06:24:22 PM 41.0683 -88.2767 310° West 371 427 27,900 -1,690 Descending FlightAware ADS-B
Fri 06:25:02 PM 41.1122 -88.3467 310° West 359 413 26,700 -1,800 Descending FlightAware ADS-B
Fri 06:25:52 PM 41.1645 -88.4302 310° West 356 410 25,200 -1,852 Descending FlightAware ADS-B
Fri 06:26:23 PM 41.1974 -88.4828 310° West 355 409 24,200 -1,352 Descending FlightAware ADS-B
Fri 06:27:03 PM 41.2397 -88.5508 310° West 367 422 23,600 -1,955 Descending FlightAware ADS-B
Fri 06:27:52 PM 41.2938 -88.6376 309° West 367 422 21,300 -2,317 Descending FlightAware ADS-B
Fri 06:28:44 PM 41.3480 -88.7250 309° West 348 400 19,700 -1,829 Descending FlightAware ADS-B
Fri 06:29:14 PM 41.3773 -88.7725 309° West 338 389 18,800 -1,869 Descending FlightAware ADS-B
Fri 06:29:45 PM 41.4049 -88.8173 309° West 331 381 17,800 -1,810 Descending FlightAware ADS-B
Fri 06:30:17 PM 41.4370 -88.8694 310° West 323 372 16,900 -1,750 Descending FlightAware ADS-B
Fri 06:30:57 PM 41.4773 -88.9346 309° West 316 364 15,700 -1,636 Descending FlightAware ADS-B
Fri 06:31:34 PM 41.5067 -88.9825 309° West 318 366 14,800 -1,308 Descending FlightAware ADS-B
Fri 06:32:15 PM 41.5487 -89.0511 310° West 313 360 14,000 -885 Descending FlightAware ADS-B
Fri 06:32:35 PM 41.5727 -89.0738 339° North 316 364 13,900 -200 Descending FlightAware ADS-B
Fri 06:32:45 PM 41.5876 -89.0778 355° North 318 366 13,900  Level FlightAware ADS-B
Fri 06:32:54 PM 41.5727 -89.0738 357° North 317 365 13,900  Level FlightAware ADS-B
Fri 06:33:23 PM 41.6193 -89.0797 359° North 301 346 13,900 102 Level FlightAware ADS-B
Fri 06:33:53 PM 41.6846 -89.0823 358° North 288 331 14,000  Climbing FlightAware ADS-B
Fri 06:34:32 PM 41.7345 -89.0846 358° North 267 307 13,900 -667 Descending FlightAware ADS-B
Fri 06:35:05 PM 41.7721 -89.0864 358° North 243 280 13,200 -1,463 Descending FlightAware ADS-B
Fri 06:36:35 PM 41.8599 -89.0900 358° North 202 232 10,900 -2,038 Descending FlightAware ADS-B
Fri 06:37:44 PM 41.9241 -89.0935 358° North 191 220 7,800 -2,531 Descending FlightAware ADS-B
Fri 06:38:43 PM 41.9706 -89.0972 358° North 192 221 5,500 -2,033 Descending Chicago Center
Fri 06:39:45 PM 42.0244 -89.0975 360° North 192 221 3,700 -1,548 Descending Chicago Center
Fri 06:40:47 PM 42.0756 -89.0994 358° North 191 220 2,300 -774 Descending Chicago Center
Fri 06:41:49 PM 42.1264 -89.0978 North 184 212 2,100 -194 Descending Chicago Center
Fri 06:43:00 PM 42.1833 -89.0833 20° North  Level FlightAware Approximate

Login

Don't have an account? Register now (free) for customized features, flight alerts, and more!